sensor_id;sensor_type;location;lat;lon;timestamp;P1;durP1;ratioP1;P2;durP2;ratioP2
44098;SDS011;29762;50.086;14.364;2022-08-21T00:02:13;4.13;;;3.83;;
44098;SDS011;29762;50.086;14.364;2022-08-21T00:07:36;4.40;;;4.00;;
44098;SDS011;29762;50.086;14.364;2022-08-21T00:12:56;4.22;;;3.92;;
44098;SDS011;29762;50.086;14.364;2022-08-21T00:18:16;3.95;;;3.65;;
44098;SDS011;29762;50.086;14.364;2022-08-21T00:23:36;4.20;;;3.90;;
44098;SDS011;29762;50.086;14.364;2022-08-21T00:28:55;4.03;;;3.72;;
44098;SDS011;29762;50.086;14.364;2022-08-21T00:34:15;4.07;;;3.78;;
44098;SDS011;29762;50.086;14.364;2022-08-21T00:39:34;4.20;;;3.80;;
44098;SDS011;29762;50.086;14.364;2022-08-21T00:44:54;5.05;;;3.97;;
44098;SDS011;29762;50.086;14.364;2022-08-21T00:50:13;4.20;;;3.90;;
44098;SDS011;29762;50.086;14.364;2022-08-21T00:55:34;4.28;;;3.97;;
44098;SDS011;29762;50.086;14.364;2022-08-21T01:00:54;4.15;;;3.85;;
44098;SDS011;29762;50.086;14.364;2022-08-21T01:06:13;4.20;;;3.90;;
44098;SDS011;29762;50.086;14.364;2022-08-21T01:11:32;4.10;;;3.80;;
44098;SDS011;29762;50.086;14.364;2022-08-21T01:16:52;4.18;;;3.88;;
44098;SDS011;29762;50.086;14.364;2022-08-21T01:22:12;4.10;;;3.80;;
44098;SDS011;29762;50.086;14.364;2022-08-21T01:27:32;4.18;;;3.88;;
44098;SDS011;29762;50.086;14.364;2022-08-21T01:32:51;4.32;;;4.03;;
44098;SDS011;29762;50.086;14.364;2022-08-21T01:38:11;4.07;;;3.78;;
44098;SDS011;29762;50.086;14.364;2022-08-21T01:43:31;4.43;;;4.13;;
44098;SDS011;29762;50.086;14.364;2022-08-21T01:48:51;4.07;;;3.78;;
44098;SDS011;29762;50.086;14.364;2022-08-21T01:54:10;4.30;;;4.00;;
44098;SDS011;29762;50.086;14.364;2022-08-21T01:59:30;4.38;;;4.00;;
44098;SDS011;29762;50.086;14.364;2022-08-21T02:04:50;4.53;;;4.22;;
44098;SDS011;29762;50.086;14.364;2022-08-21T02:10:10;3.92;;;3.63;;
44098;SDS011;29762;50.086;14.364;2022-08-21T02:15:32;4.22;;;3.92;;
44098;SDS011;29762;50.086;14.364;2022-08-21T02:20:51;4.40;;;4.10;;
44098;SDS011;29762;50.086;14.364;2022-08-21T02:26:10;4.32;;;4.03;;
44098;SDS011;29762;50.086;14.364;2022-08-21T02:31:31;4.45;;;4.05;;
44098;SDS011;29762;50.086;14.364;2022-08-21T02:36:50;4.35;;;4.05;;
44098;SDS011;29762;50.086;14.364;2022-08-21T02:42:09;4.57;;;4.20;;
44098;SDS011;29762;50.086;14.364;2022-08-21T02:47:29;5.70;;;4.38;;
44098;SDS011;29762;50.086;14.364;2022-08-21T02:52:48;4.32;;;4.03;;
44098;SDS011;29762;50.086;14.364;2022-08-21T02:58:08;4.72;;;4.35;;
44098;SDS011;29762;50.086;14.364;2022-08-21T03:03:27;4.43;;;4.13;;
44098;SDS011;29762;50.086;14.364;2022-08-21T03:08:48;4.25;;;3.95;;
44098;SDS011;29762;50.086;14.364;2022-08-21T03:14:08;4.38;;;4.03;;
44098;SDS011;29762;50.086;14.364;2022-08-21T03:19:28;4.28;;;3.97;;
44098;SDS011;29762;50.086;14.364;2022-08-21T03:24:47;4.28;;;3.88;;
44098;SDS011;29762;50.086;14.364;2022-08-21T03:30:08;4.30;;;4.00;;
44098;SDS011;29762;50.086;14.364;2022-08-21T03:35:28;4.57;;;4.28;;
44098;SDS011;29762;50.086;14.364;2022-08-21T03:40:48;4.68;;;4.30;;
44098;SDS011;29762;50.086;14.364;2022-08-21T03:46:07;4.47;;;4.18;;
44098;SDS011;29762;50.086;14.364;2022-08-21T03:51:27;4.80;;;4.47;;
44098;SDS011;29762;50.086;14.364;2022-08-21T03:56:46;5.32;;;4.93;;
44098;SDS011;29762;50.086;14.364;2022-08-21T04:02:06;4.30;;;4.00;;
44098;SDS011;29762;50.086;14.364;2022-08-21T04:07:26;5.03;;;4.63;;
44098;SDS011;29762;50.086;14.364;2022-08-21T04:12:45;4.50;;;4.20;;
44098;SDS011;29762;50.086;14.364;2022-08-21T04:18:05;4.93;;;4.53;;
44098;SDS011;29762;50.086;14.364;2022-08-21T04:23:24;4.60;;;4.20;;
44098;SDS011;29762;50.086;14.364;2022-08-21T04:28:44;4.75;;;4.35;;
44098;SDS011;29762;50.086;14.364;2022-08-21T04:34:04;4.57;;;4.25;;
44098;SDS011;29762;50.086;14.364;2022-08-21T04:39:23;4.55;;;4.25;;
44098;SDS011;29762;50.086;14.364;2022-08-21T04:44:43;4.50;;;4.20;;
44098;SDS011;29762;50.086;14.364;2022-08-21T04:50:02;4.78;;;4.38;;
44098;SDS011;29762;50.086;14.364;2022-08-21T04:55:21;5.10;;;4.10;;
44098;SDS011;29762;50.086;14.364;2022-08-21T05:00:43;4.50;;;4.20;;
44098;SDS011;29762;50.086;14.364;2022-08-21T05:06:03;4.80;;;4.40;;
44098;SDS011;29762;50.086;14.364;2022-08-21T05:11:24;4.32;;;3.97;;
44098;SDS011;29762;50.086;14.364;2022-08-21T05:16:44;4.18;;;3.83;;
44098;SDS011;29762;50.086;14.364;2022-08-21T05:22:03;4.47;;;4.18;;
44098;SDS011;29762;50.086;14.364;2022-08-21T05:27:23;4.60;;;4.20;;
44098;SDS011;29762;50.086;14.364;2022-08-21T05:32:43;4.78;;;4.40;;
44098;SDS011;29762;50.086;14.364;2022-08-21T05:38:02;9.18;;;7.88;;
44098;SDS011;29762;50.086;14.364;2022-08-21T05:43:22;8.57;;;7.68;;
44098;SDS011;29762;50.086;14.364;2022-08-21T05:48:41;7.40;;;6.70;;
44098;SDS011;29762;50.086;14.364;2022-08-21T05:54:01;6.93;;;6.30;;
44098;SDS011;29762;50.086;14.364;2022-08-21T05:59:20;6.75;;;6.15;;
44098;SDS011;29762;50.086;14.364;2022-08-21T06:04:39;6.32;;;5.72;;
44098;SDS011;29762;50.086;14.364;2022-08-21T06:09:59;6.28;;;5.78;;
44098;SDS011;29762;50.086;14.364;2022-08-21T06:15:19;6.03;;;5.53;;
44098;SDS011;29762;50.086;14.364;2022-08-21T06:20:38;6.18;;;5.60;;
44098;SDS011;29762;50.086;14.364;2022-08-21T06:25:58;5.30;;;4.80;;
44098;SDS011;29762;50.086;14.364;2022-08-21T06:31:19;3.80;;;3.50;;
44098;SDS011;29762;50.086;14.364;2022-08-21T06:36:40;3.25;;;2.95;;
44098;SDS011;29762;50.086;14.364;2022-08-21T06:42:00;3.72;;;3.42;;
44098;SDS011;29762;50.086;14.364;2022-08-21T06:47:21;3.35;;;3.08;;
44098;SDS011;29762;50.086;14.364;2022-08-21T06:52:40;4.22;;;3.40;;
44098;SDS011;29762;50.086;14.364;2022-08-21T06:58:00;6.40;;;3.22;;
44098;SDS011;29762;50.086;14.364;2022-08-21T07:03:24;3.50;;;3.03;;
44098;SDS011;29762;50.086;14.364;2022-08-21T07:08:48;3.58;;;2.55;;
44098;SDS011;29762;50.086;14.364;2022-08-21T07:14:07;3.60;;;3.30;;
44098;SDS011;29762;50.086;14.364;2022-08-21T07:19:26;5.75;;;3.42;;
44098;SDS011;29762;50.086;14.364;2022-08-21T07:24:46;3.40;;;3.20;;
44098;SDS011;29762;50.086;14.364;2022-08-21T07:30:05;3.67;;;3.28;;
44098;SDS011;29762;50.086;14.364;2022-08-21T07:35:26;3.58;;;3.28;;
44098;SDS011;29762;50.086;14.364;2022-08-21T07:40:47;3.70;;;3.50;;
44098;SDS011;29762;50.086;14.364;2022-08-21T07:46:07;4.18;;;3.45;;
44098;SDS011;29762;50.086;14.364;2022-08-21T07:51:26;4.35;;;3.95;;
44098;SDS011;29762;50.086;14.364;2022-08-21T07:56:47;4.20;;;3.90;;
44098;SDS011;29762;50.086;14.364;2022-08-21T08:02:06;3.88;;;3.53;;
44098;SDS011;29762;50.086;14.364;2022-08-21T08:07:26;5.57;;;3.60;;
44098;SDS011;29762;50.086;14.364;2022-08-21T08:12:46;6.00;;;3.30;;
44098;SDS011;29762;50.086;14.364;2022-08-21T08:18:06;3.85;;;3.15;;
44098;SDS011;29762;50.086;14.364;2022-08-21T08:23:26;3.40;;;3.10;;
44098;SDS011;29762;50.086;14.364;2022-08-21T08:28:46;3.63;;;3.15;;
44098;SDS011;29762;50.086;14.364;2022-08-21T08:34:06;3.33;;;3.03;;
44098;SDS011;29762;50.086;14.364;2022-08-21T08:39:26;3.15;;;2.95;;
44098;SDS011;29762;50.086;14.364;2022-08-21T08:44:46;5.85;;;2.90;;
44098;SDS011;29762;50.086;14.364;2022-08-21T08:50:15;3.72;;;3.00;;
44098;SDS011;29762;50.086;14.364;2022-08-21T08:55:40;5.32;;;2.78;;
44098;SDS011;29762;50.086;14.364;2022-08-21T09:01:01;3.10;;;2.80;;
44098;SDS011;29762;50.086;14.364;2022-08-21T09:12:04;3.08;;;2.88;;
44098;SDS011;29762;50.086;14.364;2022-08-21T09:17:39;3.00;;;2.77;;
44098;SDS011;29762;50.086;14.364;2022-08-21T09:28:37;3.15;;;2.85;;
44098;SDS011;29762;50.086;14.364;2022-08-21T09:34:01;3.00;;;2.80;;
44098;SDS011;29762;50.086;14.364;2022-08-21T09:39:29;3.17;;;2.80;;
44098;SDS011;29762;50.086;14.364;2022-08-21T09:45:04;4.65;;;2.60;;
44098;SDS011;29762;50.086;14.364;2022-08-21T09:50:30;2.70;;;2.50;;
44098;SDS011;29762;50.086;14.364;2022-08-21T10:01:31;3.20;;;2.90;;
44098;SDS011;29762;50.086;14.364;2022-08-21T10:06:50;4.22;;;3.17;;
44098;SDS011;29762;50.086;14.364;2022-08-21T10:18:17;3.25;;;2.95;;
44098;SDS011;29762;50.086;14.364;2022-08-21T10:34:48;4.20;;;3.47;;
44098;SDS011;29762;50.086;14.364;2022-08-21T10:56:38;3.08;;;2.88;;
44098;SDS011;29762;50.086;14.364;2022-08-21T11:02:02;5.05;;;3.22;;
44098;SDS011;29762;50.086;14.364;2022-08-21T11:13:02;6.15;;;3.33;;
44098;SDS011;29762;50.086;14.364;2022-08-21T11:18:33;4.88;;;3.03;;
44098;SDS011;29762;50.086;14.364;2022-08-21T11:29:19;3.65;;;2.85;;
44098;SDS011;29762;50.086;14.364;2022-08-21T11:40:19;4.88;;;2.60;;
44098;SDS011;29762;50.086;14.364;2022-08-21T11:51:05;3.38;;;2.80;;
44098;SDS011;29762;50.086;14.364;2022-08-21T11:56:34;3.50;;;3.08;;
44098;SDS011;29762;50.086;14.364;2022-08-21T12:01:57;3.10;;;2.60;;
44098;SDS011;29762;50.086;14.364;2022-08-21T12:07:28;3.45;;;2.88;;
44098;SDS011;29762;50.086;14.364;2022-08-21T12:12:48;3.42;;;2.60;;
44098;SDS011;29762;50.086;14.364;2022-08-21T12:18:21;3.88;;;2.42;;
44098;SDS011;29762;50.086;14.364;2022-08-21T12:23:45;3.85;;;2.70;;
44098;SDS011;29762;50.086;14.364;2022-08-21T12:29:09;2.88;;;2.50;;
44098;SDS011;29762;50.086;14.364;2022-08-21T12:34:32;3.00;;;2.53;;
44098;SDS011;29762;50.086;14.364;2022-08-21T12:39:58;4.00;;;3.00;;
44098;SDS011;29762;50.086;14.364;2022-08-21T12:51:25;4.28;;;3.25;;
44098;SDS011;29762;50.086;14.364;2022-08-21T12:56:55;4.38;;;3.47;;
44098;SDS011;29762;50.086;14.364;2022-08-21T13:02:19;4.93;;;3.38;;
44098;SDS011;29762;50.086;14.364;2022-08-21T13:07:46;5.82;;;3.10;;
44098;SDS011;29762;50.086;14.364;2022-08-21T13:13:08;2.90;;;2.60;;
44098;SDS011;29762;50.086;14.364;2022-08-21T13:18:33;3.92;;;3.10;;
44098;SDS011;29762;50.086;14.364;2022-08-21T13:24:05;4.13;;;2.75;;
44098;SDS011;29762;50.086;14.364;2022-08-21T13:29:29;4.82;;;3.38;;
44098;SDS011;29762;50.086;14.364;2022-08-21T13:34:53;2.80;;;2.60;;
44098;SDS011;29762;50.086;14.364;2022-08-21T13:40:16;3.80;;;2.65;;
44098;SDS011;29762;50.086;14.364;2022-08-21T13:45:38;5.97;;;2.70;;
44098;SDS011;29762;50.086;14.364;2022-08-21T13:50:57;13.75;;;5.50;;
44098;SDS011;29762;50.086;14.364;2022-08-21T13:56:27;8.35;;;3.25;;
44098;SDS011;29762;50.086;14.364;2022-08-21T14:01:49;4.63;;;2.75;;
44098;SDS011;29762;50.086;14.364;2022-08-21T14:07:15;6.30;;;3.17;;
44098;SDS011;29762;50.086;14.364;2022-08-21T14:12:45;4.90;;;2.80;;
44098;SDS011;29762;50.086;14.364;2022-08-21T14:18:07;4.07;;;2.55;;
44098;SDS011;29762;50.086;14.364;2022-08-21T14:23:35;3.83;;;2.60;;
44098;SDS011;29762;50.086;14.364;2022-08-21T14:28:57;4.57;;;2.60;;
44098;SDS011;29762;50.086;14.364;2022-08-21T14:34:18;5.63;;;2.97;;
44098;SDS011;29762;50.086;14.364;2022-08-21T14:39:37;3.70;;;3.00;;
44098;SDS011;29762;50.086;14.364;2022-08-21T14:44:59;4.15;;;2.50;;
44098;SDS011;29762;50.086;14.364;2022-08-21T14:50:21;3.70;;;2.45;;
44098;SDS011;29762;50.086;14.364;2022-08-21T14:55:41;6.35;;;2.72;;
44098;SDS011;29762;50.086;14.364;2022-08-21T15:01:20;4.30;;;2.75;;
44098;SDS011;29762;50.086;14.364;2022-08-21T15:06:40;3.30;;;2.33;;
44098;SDS011;29762;50.086;14.364;2022-08-21T15:12:00;3.78;;;2.65;;
44098;SDS011;29762;50.086;14.364;2022-08-21T15:17:20;4.68;;;3.03;;
44098;SDS011;29762;50.086;14.364;2022-08-21T15:22:40;4.68;;;2.60;;
44098;SDS011;29762;50.086;14.364;2022-08-21T15:27:59;3.17;;;2.45;;
44098;SDS011;29762;50.086;14.364;2022-08-21T15:33:19;4.70;;;2.63;;
44098;SDS011;29762;50.086;14.364;2022-08-21T15:38:38;2.90;;;2.38;;
44098;SDS011;29762;50.086;14.364;2022-08-21T15:43:58;3.33;;;2.50;;
44098;SDS011;29762;50.086;14.364;2022-08-21T15:49:18;3.05;;;2.33;;
44098;SDS011;29762;50.086;14.364;2022-08-21T15:54:38;3.38;;;2.35;;
44098;SDS011;29762;50.086;14.364;2022-08-21T15:59:58;4.15;;;2.40;;
44098;SDS011;29762;50.086;14.364;2022-08-21T16:05:31;3.72;;;1.95;;
44098;SDS011;29762;50.086;14.364;2022-08-21T16:10:51;5.35;;;2.05;;
44098;SDS011;29762;50.086;14.364;2022-08-21T16:16:12;3.85;;;2.20;;
44098;SDS011;29762;50.086;14.364;2022-08-21T16:21:35;4.28;;;2.00;;
44098;SDS011;29762;50.086;14.364;2022-08-21T16:26:54;2.15;;;1.92;;
44098;SDS011;29762;50.086;14.364;2022-08-21T16:32:14;3.45;;;2.08;;
44098;SDS011;29762;50.086;14.364;2022-08-21T16:37:35;4.07;;;1.70;;
44098;SDS011;29762;50.086;14.364;2022-08-21T16:42:54;2.78;;;1.80;;
44098;SDS011;29762;50.086;14.364;2022-08-21T16:48:14;3.25;;;1.80;;
44098;SDS011;29762;50.086;14.364;2022-08-21T16:53:34;4.88;;;1.85;;
44098;SDS011;29762;50.086;14.364;2022-08-21T16:58:54;4.25;;;2.00;;
44098;SDS011;29762;50.086;14.364;2022-08-21T17:04:14;4.10;;;2.08;;
44098;SDS011;29762;50.086;14.364;2022-08-21T17:09:34;3.65;;;1.80;;
44098;SDS011;29762;50.086;14.364;2022-08-21T17:14:54;4.22;;;2.00;;
44098;SDS011;29762;50.086;14.364;2022-08-21T17:20:22;4.78;;;1.90;;
44098;SDS011;29762;50.086;14.364;2022-08-21T17:25:43;7.63;;;2.10;;
44098;SDS011;29762;50.086;14.364;2022-08-21T17:31:05;6.60;;;2.25;;
44098;SDS011;29762;50.086;14.364;2022-08-21T17:36:26;3.33;;;1.98;;
44098;SDS011;29762;50.086;14.364;2022-08-21T17:41:47;6.00;;;1.90;;
44098;SDS011;29762;50.086;14.364;2022-08-21T17:47:07;4.55;;;1.95;;
44098;SDS011;29762;50.086;14.364;2022-08-21T17:52:27;4.45;;;1.92;;
44098;SDS011;29762;50.086;14.364;2022-08-21T17:57:47;2.42;;;1.30;;
44098;SDS011;29762;50.086;14.364;2022-08-21T18:03:08;1.50;;;1.30;;
44098;SDS011;29762;50.086;14.364;2022-08-21T18:08:33;2.08;;;1.27;;
44098;SDS011;29762;50.086;14.364;2022-08-21T18:13:53;2.28;;;1.60;;
44098;SDS011;29762;50.086;14.364;2022-08-21T18:19:14;3.38;;;1.30;;
44098;SDS011;29762;50.086;14.364;2022-08-21T18:24:37;3.85;;;1.35;;
44098;SDS011;29762;50.086;14.364;2022-08-21T18:29:57;2.33;;;1.35;;
44098;SDS011;29762;50.086;14.364;2022-08-21T18:35:18;2.33;;;1.20;;
44098;SDS011;29762;50.086;14.364;2022-08-21T18:40:38;3.55;;;1.58;;
44098;SDS011;29762;50.086;14.364;2022-08-21T18:46:03;4.05;;;1.60;;
44098;SDS011;29762;50.086;14.364;2022-08-21T18:51:23;2.70;;;1.17;;
44098;SDS011;29762;50.086;14.364;2022-08-21T18:56:42;2.80;;;1.60;;
44098;SDS011;29762;50.086;14.364;2022-08-21T19:02:03;2.92;;;1.40;;
44098;SDS011;29762;50.086;14.364;2022-08-21T19:07:26;3.95;;;1.25;;
44098;SDS011;29762;50.086;14.364;2022-08-21T19:12:45;1.67;;;1.23;;
44098;SDS011;29762;50.086;14.364;2022-08-21T19:18:06;2.13;;;1.45;;
44098;SDS011;29762;50.086;14.364;2022-08-21T19:23:30;2.92;;;1.40;;
44098;SDS011;29762;50.086;14.364;2022-08-21T19:28:51;2.50;;;1.30;;
44098;SDS011;29762;50.086;14.364;2022-08-21T19:34:14;3.20;;;1.50;;
44098;SDS011;29762;50.086;14.364;2022-08-21T19:39:36;3.28;;;1.20;;
44098;SDS011;29762;50.086;14.364;2022-08-21T19:44:57;3.03;;;1.35;;
44098;SDS011;29762;50.086;14.364;2022-08-21T19:50:16;3.80;;;1.60;;
44098;SDS011;29762;50.086;14.364;2022-08-21T19:55:36;3.00;;;1.35;;
44098;SDS011;29762;50.086;14.364;2022-08-21T20:00:59;3.60;;;1.40;;
44098;SDS011;29762;50.086;14.364;2022-08-21T20:06:19;2.97;;;1.27;;
44098;SDS011;29762;50.086;14.364;2022-08-21T20:11:40;2.85;;;1.30;;
44098;SDS011;29762;50.086;14.364;2022-08-21T20:17:05;1.35;;;1.17;;
44098;SDS011;29762;50.086;14.364;2022-08-21T20:22:28;1.80;;;1.20;;
44098;SDS011;29762;50.086;14.364;2022-08-21T20:27:48;1.48;;;1.25;;
44098;SDS011;29762;50.086;14.364;2022-08-21T20:33:07;4.55;;;1.80;;
44098;SDS011;29762;50.086;14.364;2022-08-21T20:38:27;1.58;;;1.30;;
44098;SDS011;29762;50.086;14.364;2022-08-21T20:43:47;2.03;;;1.30;;
44098;SDS011;29762;50.086;14.364;2022-08-21T20:49:09;1.40;;;1.27;;
44098;SDS011;29762;50.086;14.364;2022-08-21T20:54:40;3.13;;;1.27;;
44098;SDS011;29762;50.086;14.364;2022-08-21T21:00:08;1.92;;;1.20;;
44098;SDS011;29762;50.086;14.364;2022-08-21T21:05:32;2.45;;;1.20;;
44098;SDS011;29762;50.086;14.364;2022-08-21T21:10:59;2.85;;;1.48;;
44098;SDS011;29762;50.086;14.364;2022-08-21T21:16:27;1.80;;;1.17;;
44098;SDS011;29762;50.086;14.364;2022-08-21T21:21:53;1.38;;;1.13;;
44098;SDS011;29762;50.086;14.364;2022-08-21T21:27:21;1.70;;;1.27;;
44098;SDS011;29762;50.086;14.364;2022-08-21T21:32:43;1.35;;;1.20;;
44098;SDS011;29762;50.086;14.364;2022-08-21T21:38:10;5.30;;;1.60;;
44098;SDS011;29762;50.086;14.364;2022-08-21T21:49:32;1.30;;;1.15;;
44098;SDS011;29762;50.086;14.364;2022-08-21T21:54:56;1.77;;;1.20;;
44098;SDS011;29762;50.086;14.364;2022-08-21T22:00:25;1.20;;;1.10;;
44098;SDS011;29762;50.086;14.364;2022-08-21T22:05:48;1.27;;;1.10;;
44098;SDS011;29762;50.086;14.364;2022-08-21T22:16:50;1.92;;;1.30;;
44098;SDS011;29762;50.086;14.364;2022-08-21T22:22:13;1.50;;;1.20;;
44098;SDS011;29762;50.086;14.364;2022-08-21T22:27:36;1.77;;;1.30;;
44098;SDS011;29762;50.086;14.364;2022-08-21T22:32:57;1.63;;;1.17;;
44098;SDS011;29762;50.086;14.364;2022-08-21T22:38:38;1.48;;;1.20;;
44098;SDS011;29762;50.086;14.364;2022-08-21T22:44:01;1.75;;;1.15;;
44098;SDS011;29762;50.086;14.364;2022-08-21T22:49:26;1.63;;;1.25;;
44098;SDS011;29762;50.086;14.364;2022-08-21T22:54:47;1.63;;;1.20;;
44098;SDS011;29762;50.086;14.364;2022-08-21T23:00:10;1.58;;;1.10;;
44098;SDS011;29762;50.086;14.364;2022-08-21T23:05:33;1.38;;;1.27;;
44098;SDS011;29762;50.086;14.364;2022-08-21T23:11:38;1.58;;;1.20;;
44098;SDS011;29762;50.086;14.364;2022-08-21T23:22:21;2.28;;;1.20;;
44098;SDS011;29762;50.086;14.364;2022-08-21T23:39:19;1.70;;;1.13;;
44098;SDS011;29762;50.086;14.364;2022-08-21T23:50:40;1.25;;;1.15;;
